Terminal Aerodrome Forecast
Issued by NWS

Current Version | Previous Version | Text Only | Print | Product List | Glossary Off
Versions: 1 2 3 4 5 6 7 8 9 10 11 12 13 14 15 16 17 18 19 20 21 22 23 24 25 26 27 28 29 30 31 32 33 34 35 36 37 38 39 40 41 42 43 44 45 46 47 48 49 50

909
FTUS44 KHGX 191723 CCA
TAFIAH
TAF COR
KIAH 191723Z 1918/2024 20006KT P6SM SCT003 BKN025 OVC090
      TEMPO 1918/1919 5SM -RA BKN003
     FM200200 20004KT 4SM BR BKN010
     FM200600 VRB04KT 2SM BR OVC007
      TEMPO 2010/2014 1/2SM FG OVC002
     FM201500 22005KT 4SM BR BKN007 OVC012
     FM201800 22006KT P6SM SCT100=

USA.gov is the U.S. government's official web portal to all federal, state and local government web resources and services.